Delray Beach, FL (33448)

7:58 AM EDT on August 26, 2016 (GMT -0400)
Danny B at Four Seasons | | Change Station

Elev 23 ft 26.46 °N, 80.20 °W | Updated 5 minutes ago

Mostly Cloudy
Mostly Cloudy
80.3 °F
Feels Like 87 °F
N
0.0
Wind Variable Wind from NNW

Today
High -- | Low -- °F
--% Chance of Precip.
Yesterday
High -- | Low -- °F
Precip. -- in
Pressure 29.96 in
Visibility 10.0 miles
Clouds Scattered Clouds 2100 ft
Scattered Clouds 3900 ft
Mostly Cloudy 25000 ft
Heat Index 87 °F
Dew Point 79 °F
Humidity 95%
Rainfall 0.00 in
Snow Depth Not available.
6:58 AM 7:46 PM
Waning Crescent, 35% visible
METAR KPMP 261153Z 00000KT 10SM SCT021 SCT039 BKN250 29/24 A2996 RMK AO2 SLP146 70003 T02890239 10289 20272 53010
Pressure 29.96 in
Visibility 10.0 miles
Clouds Scattered Clouds 2100 ft
Scattered Clouds 3900 ft
Mostly Cloudy 25000 ft
Heat Index 87 °F
Dew Point 79 °F
Humidity 95%
Rainfall 0.00 in
Snow Depth Not available.
6:58 AM 7:46 PM
Waning Crescent, 35% visible
METAR KPMP 261153Z 00000KT 10SM SCT021 SCT039 BKN250 29/24 A2996 RMK AO2 SLP146 70003 T02890239 10289 20272 53010

10-Day Weather Forecast

Almanac

Astronomy

Aug. 26, 2016 Rise Set
Actual Time
Civil Twilight
Nautical Twilight
Astronomical Twilight
Moon
Length of Visible Light
Length of Day
Tomorrow will be .
, % of the Moon is Illuminated

Today's Extremes

State Highs State Lows

Community

WunderPhotos

Upload Photos

1,935,071 photos uploaded!

WunderBlog® & News

Nearby

Air Quality

  Air Quality AQ Index Pollutant
Not available.

Snow Depth

Station Depth Elevation

Earthquake Activity

City Distance Mag. Time & Date
Minimum magnitude displayed is 2.5.

Coastal Water Temperatures

Place Temperature

Stations

Nearby Weather Stations

Station Location Temp. Windchill Dew Point Humidity Wind Precip. Elev Updated Type
                   

Watches & Warnings

There are currently no watches in effect.